sensor_id;sensor_type;location;lat;lon;timestamp;temperature;humidity
46562;DHT22;32289;42.688;23.330;2023-03-08T00:00:11;6.70;86.00
46562;DHT22;32289;42.688;23.330;2023-03-08T00:03:55;6.80;86.60
46562;DHT22;32289;42.688;23.330;2023-03-08T00:07:36;6.60;87.90
46562;DHT22;32289;42.688;23.330;2023-03-08T00:11:17;6.60;88.30
46562;DHT22;32289;42.688;23.330;2023-03-08T00:14:57;6.50;87.90
46562;DHT22;32289;42.688;23.330;2023-03-08T00:18:38;6.50;89.50
46562;DHT22;32289;42.688;23.330;2023-03-08T00:22:19;6.50;89.10
46562;DHT22;32289;42.688;23.330;2023-03-08T00:26:00;6.40;90.30
46562;DHT22;32289;42.688;23.330;2023-03-08T00:29:41;6.50;90.00
46562;DHT22;32289;42.688;23.330;2023-03-08T00:33:21;6.50;90.20
46562;DHT22;32289;42.688;23.330;2023-03-08T00:37:02;6.60;90.60
46562;DHT22;32289;42.688;23.330;2023-03-08T00:40:43;6.40;91.00
46562;DHT22;32289;42.688;23.330;2023-03-08T00:44:23;6.30;91.30
46562;DHT22;32289;42.688;23.330;2023-03-08T00:48:04;6.30;91.30
46562;DHT22;32289;42.688;23.330;2023-03-08T00:51:45;6.10;92.60
46562;DHT22;32289;42.688;23.330;2023-03-08T00:55:26;6.20;92.10
46562;DHT22;32289;42.688;23.330;2023-03-08T00:59:07;6.00;92.80
46562;DHT22;32289;42.688;23.330;2023-03-08T01:02:47;6.00;92.80
46562;DHT22;32289;42.688;23.330;2023-03-08T01:06:28;6.00;93.30
46562;DHT22;32289;42.688;23.330;2023-03-08T01:10:09;5.90;93.90
46562;DHT22;32289;42.688;23.330;2023-03-08T01:13:51;5.90;94.10
46562;DHT22;32289;42.688;23.330;2023-03-08T01:17:32;5.90;93.80
46562;DHT22;32289;42.688;23.330;2023-03-08T01:21:12;6.00;93.90
46562;DHT22;32289;42.688;23.330;2023-03-08T01:24:53;6.00;93.80
46562;DHT22;32289;42.688;23.330;2023-03-08T01:28:34;5.90;93.90
46562;DHT22;32289;42.688;23.330;2023-03-08T01:32:15;6.00;93.80
46562;DHT22;32289;42.688;23.330;2023-03-08T01:35:56;5.90;93.80
46562;DHT22;32289;42.688;23.330;2023-03-08T01:39:36;5.40;95.90
46562;DHT22;32289;42.688;23.330;2023-03-08T01:43:27;5.60;96.10
46562;DHT22;32289;42.688;23.330;2023-03-08T01:47:17;5.80;95.10
46562;DHT22;32289;42.688;23.330;2023-03-08T01:51:00;5.80;95.20
46562;DHT22;32289;42.688;23.330;2023-03-08T01:54:56;5.60;95.60
46562;DHT22;32289;42.688;23.330;2023-03-08T01:58:41;5.50;96.80
46562;DHT22;32289;42.688;23.330;2023-03-08T02:02:30;5.20;97.50
46562;DHT22;32289;42.688;23.330;2023-03-08T02:06:14;5.30;98.30
46562;DHT22;32289;42.688;23.330;2023-03-08T02:09:55;5.40;97.50
46562;DHT22;32289;42.688;23.330;2023-03-08T02:13:36;5.30;98.20
46562;DHT22;32289;42.688;23.330;2023-03-08T02:17:16;5.30;97.90
46562;DHT22;32289;42.688;23.330;2023-03-08T02:20:57;5.30;98.50
46562;DHT22;32289;42.688;23.330;2023-03-08T02:24:38;5.20;99.00
46562;DHT22;32289;42.688;23.330;2023-03-08T02:28:21;5.10;99.30
46562;DHT22;32289;42.688;23.330;2023-03-08T02:32:01;5.20;99.10
46562;DHT22;32289;42.688;23.330;2023-03-08T02:35:43;5.20;99.00
46562;DHT22;32289;42.688;23.330;2023-03-08T02:39:24;5.20;99.50
46562;DHT22;32289;42.688;23.330;2023-03-08T02:43:05;5.40;98.80
46562;DHT22;32289;42.688;23.330;2023-03-08T02:46:45;5.40;98.40
46562;DHT22;32289;42.688;23.330;2023-03-08T02:50:26;5.40;98.40
46562;DHT22;32289;42.688;23.330;2023-03-08T02:54:07;5.40;98.30
46562;DHT22;32289;42.688;23.330;2023-03-08T02:57:48;5.40;98.50
46562;DHT22;32289;42.688;23.330;2023-03-08T03:01:29;5.40;98.40
46562;DHT22;32289;42.688;23.330;2023-03-08T03:05:10;5.40;98.50
46562;DHT22;32289;42.688;23.330;2023-03-08T03:08:51;5.40;98.80
46562;DHT22;32289;42.688;23.330;2023-03-08T03:12:31;5.30;99.00
46562;DHT22;32289;42.688;23.330;2023-03-08T03:16:14;5.30;99.10
46562;DHT22;32289;42.688;23.330;2023-03-08T03:19:55;5.30;99.10
46562;DHT22;32289;42.688;23.330;2023-03-08T03:23:36;5.10;99.30
46562;DHT22;32289;42.688;23.330;2023-03-08T03:27:17;5.00;99.90
46562;DHT22;32289;42.688;23.330;2023-03-08T03:30:58;5.00;99.90
46562;DHT22;32289;42.688;23.330;2023-03-08T03:34:39;5.10;99.90
46562;DHT22;32289;42.688;23.330;2023-03-08T03:38:20;5.10;99.90
46562;DHT22;32289;42.688;23.330;2023-03-08T03:42:00;5.00;99.90
46562;DHT22;32289;42.688;23.330;2023-03-08T03:45:41;5.10;99.90
46562;DHT22;32289;42.688;23.330;2023-03-08T03:49:22;5.10;99.90
46562;DHT22;32289;42.688;23.330;2023-03-08T03:53:03;5.00;99.90
46562;DHT22;32289;42.688;23.330;2023-03-08T03:56:43;5.00;99.90
46562;DHT22;32289;42.688;23.330;2023-03-08T04:00:24;4.80;99.90
46562;DHT22;32289;42.688;23.330;2023-03-08T04:04:05;4.90;99.90
46562;DHT22;32289;42.688;23.330;2023-03-08T04:07:46;4.60;99.90
46562;DHT22;32289;42.688;23.330;2023-03-08T04:11:30;4.70;99.90
46562;DHT22;32289;42.688;23.330;2023-03-08T04:15:11;4.70;99.90
46562;DHT22;32289;42.688;23.330;2023-03-08T04:18:53;4.70;99.90
46562;DHT22;32289;42.688;23.330;2023-03-08T04:22:34;4.60;99.90
46562;DHT22;32289;42.688;23.330;2023-03-08T04:26:16;4.60;99.90
46562;DHT22;32289;42.688;23.330;2023-03-08T04:29:56;4.60;99.90
46562;DHT22;32289;42.688;23.330;2023-03-08T04:33:37;4.50;99.90
46562;DHT22;32289;42.688;23.330;2023-03-08T04:37:18;4.30;99.90
46562;DHT22;32289;42.688;23.330;2023-03-08T04:40:59;4.30;99.90
46562;DHT22;32289;42.688;23.330;2023-03-08T04:44:51;4.40;99.90
46562;DHT22;32289;42.688;23.330;2023-03-08T04:48:32;4.60;99.90
46562;DHT22;32289;42.688;23.330;2023-03-08T04:52:13;4.60;99.90
46562;DHT22;32289;42.688;23.330;2023-03-08T04:55:54;4.70;99.90
46562;DHT22;32289;42.688;23.330;2023-03-08T04:59:35;4.50;99.90
46562;DHT22;32289;42.688;23.330;2023-03-08T05:03:16;4.70;99.90
46562;DHT22;32289;42.688;23.330;2023-03-08T05:06:57;4.70;99.90
46562;DHT22;32289;42.688;23.330;2023-03-08T05:10:38;4.70;99.90
46562;DHT22;32289;42.688;23.330;2023-03-08T05:14:18;4.80;99.90
46562;DHT22;32289;42.688;23.330;2023-03-08T05:18:01;4.70;99.90
46562;DHT22;32289;42.688;23.330;2023-03-08T05:21:41;4.50;99.90
46562;DHT22;32289;42.688;23.330;2023-03-08T05:25:22;4.80;99.90
46562;DHT22;32289;42.688;23.330;2023-03-08T05:29:03;4.80;99.90
46562;DHT22;32289;42.688;23.330;2023-03-08T05:32:45;4.70;99.90
46562;DHT22;32289;42.688;23.330;2023-03-08T05:36:26;4.90;99.90
46562;DHT22;32289;42.688;23.330;2023-03-08T05:40:07;4.90;99.90
46562;DHT22;32289;42.688;23.330;2023-03-08T05:43:49;4.90;99.90
46562;DHT22;32289;42.688;23.330;2023-03-08T05:47:30;5.00;99.90
46562;DHT22;32289;42.688;23.330;2023-03-08T05:51:15;4.90;99.90
46562;DHT22;32289;42.688;23.330;2023-03-08T05:54:56;4.70;99.90
46562;DHT22;32289;42.688;23.330;2023-03-08T05:58:38;4.70;99.90
46562;DHT22;32289;42.688;23.330;2023-03-08T06:02:19;4.70;99.90
46562;DHT22;32289;42.688;23.330;2023-03-08T06:06:00;4.80;99.90
46562;DHT22;32289;42.688;23.330;2023-03-08T06:09:40;4.90;99.90
46562;DHT22;32289;42.688;23.330;2023-03-08T06:13:21;4.80;99.90
46562;DHT22;32289;42.688;23.330;2023-03-08T06:17:02;4.90;99.90
46562;DHT22;32289;42.688;23.330;2023-03-08T06:20:42;5.10;99.90
46562;DHT22;32289;42.688;23.330;2023-03-08T06:24:23;5.20;99.90
46562;DHT22;32289;42.688;23.330;2023-03-08T06:28:04;5.50;99.90
46562;DHT22;32289;42.688;23.330;2023-03-08T06:31:45;5.70;99.90
46562;DHT22;32289;42.688;23.330;2023-03-08T06:35:26;6.10;99.90
46562;DHT22;32289;42.688;23.330;2023-03-08T06:39:06;6.30;99.90
46562;DHT22;32289;42.688;23.330;2023-03-08T06:42:47;6.60;99.80
46562;DHT22;32289;42.688;23.330;2023-03-08T06:46:28;6.80;98.60
46562;DHT22;32289;42.688;23.330;2023-03-08T06:50:09;7.10;97.60
46562;DHT22;32289;42.688;23.330;2023-03-08T06:53:50;7.20;95.90
46562;DHT22;32289;42.688;23.330;2023-03-08T06:57:31;7.40;96.20
46562;DHT22;32289;42.688;23.330;2023-03-08T07:01:12;7.40;95.60
46562;DHT22;32289;42.688;23.330;2023-03-08T07:04:53;7.40;95.40
46562;DHT22;32289;42.688;23.330;2023-03-08T07:08:38;7.80;94.90
46562;DHT22;32289;42.688;23.330;2023-03-08T07:12:19;9.60;86.30
46562;DHT22;32289;42.688;23.330;2023-03-08T07:16:06;13.70;70.60
46562;DHT22;32289;42.688;23.330;2023-03-08T07:19:47;14.00;61.40
46562;DHT22;32289;42.688;23.330;2023-03-08T07:23:27;12.90;65.50
46562;DHT22;32289;42.688;23.330;2023-03-08T07:27:08;11.10;73.30
46562;DHT22;32289;42.688;23.330;2023-03-08T07:30:50;10.10;76.50
46562;DHT22;32289;42.688;23.330;2023-03-08T07:34:31;11.00;76.00
46562;DHT22;32289;42.688;23.330;2023-03-08T07:38:12;10.50;74.10
46562;DHT22;32289;42.688;23.330;2023-03-08T07:41:53;10.50;76.30
46562;DHT22;32289;42.688;23.330;2023-03-08T07:45:35;10.10;77.70
46562;DHT22;32289;42.688;23.330;2023-03-08T07:49:16;10.50;76.40
46562;DHT22;32289;42.688;23.330;2023-03-08T07:52:58;12.90;69.70
46562;DHT22;32289;42.688;23.330;2023-03-08T07:56:39;13.50;66.10
46562;DHT22;32289;42.688;23.330;2023-03-08T08:00:20;12.00;70.20
46562;DHT22;32289;42.688;23.330;2023-03-08T08:04:01;11.60;71.70
46562;DHT22;32289;42.688;23.330;2023-03-08T08:07:45;10.90;73.70
46562;DHT22;32289;42.688;23.330;2023-03-08T08:11:26;11.40;73.00
46562;DHT22;32289;42.688;23.330;2023-03-08T08:15:07;11.60;71.30
46562;DHT22;32289;42.688;23.330;2023-03-08T08:18:50;11.30;72.30
46562;DHT22;32289;42.688;23.330;2023-03-08T08:22:36;11.20;73.10
46562;DHT22;32289;42.688;23.330;2023-03-08T08:26:19;11.10;73.70
46562;DHT22;32289;42.688;23.330;2023-03-08T08:30:01;12.40;69.40
46562;DHT22;32289;42.688;23.330;2023-03-08T08:33:43;14.10;68.50
46562;DHT22;32289;42.688;23.330;2023-03-08T08:37:24;16.60;59.80
46562;DHT22;32289;42.688;23.330;2023-03-08T08:41:06;14.70;60.50
46562;DHT22;32289;42.688;23.330;2023-03-08T08:44:47;16.30;60.00
46562;DHT22;32289;42.688;23.330;2023-03-08T08:48:28;17.00;57.00
46562;DHT22;32289;42.688;23.330;2023-03-08T08:52:09;17.00;55.60
46562;DHT22;32289;42.688;23.330;2023-03-08T08:55:49;19.10;53.70
46562;DHT22;32289;42.688;23.330;2023-03-08T08:59:30;14.40;58.90
46562;DHT22;32289;42.688;23.330;2023-03-08T09:03:11;13.40;64.60
46562;DHT22;32289;42.688;23.330;2023-03-08T09:06:52;14.70;60.70
46562;DHT22;32289;42.688;23.330;2023-03-08T09:10:36;12.80;64.40
46562;DHT22;32289;42.688;23.330;2023-03-08T09:14:17;12.60;66.40
46562;DHT22;32289;42.688;23.330;2023-03-08T09:17:58;12.50;66.90
46562;DHT22;32289;42.688;23.330;2023-03-08T09:21:39;12.60;66.40
46562;DHT22;32289;42.688;23.330;2023-03-08T09:25:19;12.60;66.30
46562;DHT22;32289;42.688;23.330;2023-03-08T09:29:03;12.70;65.80
46562;DHT22;32289;42.688;23.330;2023-03-08T09:32:44;12.40;67.50
46562;DHT22;32289;42.688;23.330;2023-03-08T09:36:25;13.40;65.00
46562;DHT22;32289;42.688;23.330;2023-03-08T09:40:25;13.70;64.60
46562;DHT22;32289;42.688;23.330;2023-03-08T09:48:23;14.10;63.10
46562;DHT22;32289;42.688;23.330;2023-03-08T09:56:03;14.90;61.00
46562;DHT22;32289;42.688;23.330;2023-03-08T09:59:54;15.90;57.90
46562;DHT22;32289;42.688;23.330;2023-03-08T10:03:55;15.00;61.00
46562;DHT22;32289;42.688;23.330;2023-03-08T10:07:47;16.40;58.70
46562;DHT22;32289;42.688;23.330;2023-03-08T10:11:35;15.70;58.50
46562;DHT22;32289;42.688;23.330;2023-03-08T10:15:20;15.00;60.40
46562;DHT22;32289;42.688;23.330;2023-03-08T10:19:22;14.50;61.30
46562;DHT22;32289;42.688;23.330;2023-03-08T10:23:17;15.00;60.70
46562;DHT22;32289;42.688;23.330;2023-03-08T10:27:19;14.80;60.50
46562;DHT22;32289;42.688;23.330;2023-03-08T10:31:04;15.10;59.60
46562;DHT22;32289;42.688;23.330;2023-03-08T10:35:03;15.10;59.80
46562;DHT22;32289;42.688;23.330;2023-03-08T10:38:55;14.40;60.60
46562;DHT22;32289;42.688;23.330;2023-03-08T10:42:36;16.10;58.90
46562;DHT22;32289;42.688;23.330;2023-03-08T10:46:23;15.90;57.90
46562;DHT22;32289;42.688;23.330;2023-03-08T10:50:14;16.00;57.70
46562;DHT22;32289;42.688;23.330;2023-03-08T10:53:56;15.50;58.50
46562;DHT22;32289;42.688;23.330;2023-03-08T10:57:40;14.70;59.40
46562;DHT22;32289;42.688;23.330;2023-03-08T11:05:18;15.70;58.60
46562;DHT22;32289;42.688;23.330;2023-03-08T11:09:02;15.60;58.60
46562;DHT22;32289;42.688;23.330;2023-03-08T11:12:44;15.00;59.00
46562;DHT22;32289;42.688;23.330;2023-03-08T11:20:33;15.40;59.30
46562;DHT22;32289;42.688;23.330;2023-03-08T11:24:27;16.00;57.20
46562;DHT22;32289;42.688;23.330;2023-03-08T11:28:23;15.50;58.40
46562;DHT22;32289;42.688;23.330;2023-03-08T11:32:41;15.90;57.80
46562;DHT22;32289;42.688;23.330;2023-03-08T11:36:35;15.50;57.30
46562;DHT22;32289;42.688;23.330;2023-03-08T11:56:44;15.60;52.70
46562;DHT22;32289;42.688;23.330;2023-03-08T12:00:52;15.70;53.60
46562;DHT22;32289;42.688;23.330;2023-03-08T12:08:31;15.70;53.50
46562;DHT22;32289;42.688;23.330;2023-03-08T12:12:45;15.60;53.60
46562;DHT22;32289;42.688;23.330;2023-03-08T12:16:47;15.80;53.10
46562;DHT22;32289;42.688;23.330;2023-03-08T12:20:34;15.70;53.30
46562;DHT22;32289;42.688;23.330;2023-03-08T12:24:45;15.70;53.50
46562;DHT22;32289;42.688;23.330;2023-03-08T12:28:33;15.40;53.50
46562;DHT22;32289;42.688;23.330;2023-03-08T12:32:16;15.50;53.60
46562;DHT22;32289;42.688;23.330;2023-03-08T12:36:02;15.40;53.60
46562;DHT22;32289;42.688;23.330;2023-03-08T12:43:37;15.80;53.20
46562;DHT22;32289;42.688;23.330;2023-03-08T12:47:21;16.00;52.40
46562;DHT22;32289;42.688;23.330;2023-03-08T12:55:01;16.20;52.30
46562;DHT22;32289;42.688;23.330;2023-03-08T12:58:52;15.80;52.70
46562;DHT22;32289;42.688;23.330;2023-03-08T13:02:34;16.30;52.20
46562;DHT22;32289;42.688;23.330;2023-03-08T13:06:30;16.50;51.10
46562;DHT22;32289;42.688;23.330;2023-03-08T13:10:22;16.70;51.10
46562;DHT22;32289;42.688;23.330;2023-03-08T13:14:03;16.90;51.00
46562;DHT22;32289;42.688;23.330;2023-03-08T13:17:57;16.70;51.10
46562;DHT22;32289;42.688;23.330;2023-03-08T13:21:57;16.20;51.50
46562;DHT22;32289;42.688;23.330;2023-03-08T13:26:05;16.30;51.10
46562;DHT22;32289;42.688;23.330;2023-03-08T13:29:51;16.50;51.40
46562;DHT22;32289;42.688;23.330;2023-03-08T13:33:40;16.30;50.90
46562;DHT22;32289;42.688;23.330;2023-03-08T13:37:23;16.30;51.30
46562;DHT22;32289;42.688;23.330;2023-03-08T13:41:04;16.60;51.40
46562;DHT22;32289;42.688;23.330;2023-03-08T13:44:45;16.40;51.50
46562;DHT22;32289;42.688;23.330;2023-03-08T13:48:32;16.60;51.10
46562;DHT22;32289;42.688;23.330;2023-03-08T13:52:20;16.30;51.60
46562;DHT22;32289;42.688;23.330;2023-03-08T13:56:03;15.80;51.60
46562;DHT22;32289;42.688;23.330;2023-03-08T13:59:53;16.30;51.40
46562;DHT22;32289;42.688;23.330;2023-03-08T14:03:34;16.20;51.40
46562;DHT22;32289;42.688;23.330;2023-03-08T14:07:24;16.30;52.00
46562;DHT22;32289;42.688;23.330;2023-03-08T14:11:06;16.20;51.10
46562;DHT22;32289;42.688;23.330;2023-03-08T14:15:15;15.90;51.80
46562;DHT22;32289;42.688;23.330;2023-03-08T14:18:50;15.50;53.00
46562;DHT22;32289;42.688;23.330;2023-03-08T14:22:34;15.40;53.60
46562;DHT22;32289;42.688;23.330;2023-03-08T14:34:00;15.60;53.60
46562;DHT22;32289;42.688;23.330;2023-03-08T14:37:43;15.80;53.90
46562;DHT22;32289;42.688;23.330;2023-03-08T14:41:32;15.70;53.70
46562;DHT22;32289;42.688;23.330;2023-03-08T14:45:21;15.40;53.50
46562;DHT22;32289;42.688;23.330;2023-03-08T14:49:04;15.40;53.80
46562;DHT22;32289;42.688;23.330;2023-03-08T14:52:49;15.40;53.90
46562;DHT22;32289;42.688;23.330;2023-03-08T14:56:31;15.30;53.70
46562;DHT22;32289;42.688;23.330;2023-03-08T15:00:15;15.30;53.50
46562;DHT22;32289;42.688;23.330;2023-03-08T15:03:56;15.40;53.40
46562;DHT22;32289;42.688;23.330;2023-03-08T15:07:37;15.20;53.80
46562;DHT22;32289;42.688;23.330;2023-03-08T15:11:19;15.10;54.30
46562;DHT22;32289;42.688;23.330;2023-03-08T15:15:00;15.00;54.70
46562;DHT22;32289;42.688;23.330;2023-03-08T15:18:41;14.90;54.70
46562;DHT22;32289;42.688;23.330;2023-03-08T15:22:21;15.00;55.30
46562;DHT22;32289;42.688;23.330;2023-03-08T15:26:06;14.90;55.50
46562;DHT22;32289;42.688;23.330;2023-03-08T15:29:47;14.80;55.80
46562;DHT22;32289;42.688;23.330;2023-03-08T15:33:27;14.70;56.60
46562;DHT22;32289;42.688;23.330;2023-03-08T15:37:12;14.70;56.00
46562;DHT22;32289;42.688;23.330;2023-03-08T15:40:56;14.80;56.00
46562;DHT22;32289;42.688;23.330;2023-03-08T15:44:37;14.70;56.20
46562;DHT22;32289;42.688;23.330;2023-03-08T15:48:18;14.60;56.20
46562;DHT22;32289;42.688;23.330;2023-03-08T15:51:59;14.60;56.00
46562;DHT22;32289;42.688;23.330;2023-03-08T15:55:40;14.60;55.90
46562;DHT22;32289;42.688;23.330;2023-03-08T15:59:20;14.60;56.20
46562;DHT22;32289;42.688;23.330;2023-03-08T16:03:01;14.50;56.40
46562;DHT22;32289;42.688;23.330;2023-03-08T16:06:42;14.30;57.00
46562;DHT22;32289;42.688;23.330;2023-03-08T16:10:23;14.20;57.80
46562;DHT22;32289;42.688;23.330;2023-03-08T16:14:03;14.00;58.10
46562;DHT22;32289;42.688;23.330;2023-03-08T16:17:46;13.90;59.00
46562;DHT22;32289;42.688;23.330;2023-03-08T16:21:26;13.80;59.00
46562;DHT22;32289;42.688;23.330;2023-03-08T16:25:09;13.60;59.40
46562;DHT22;32289;42.688;23.330;2023-03-08T16:28:49;13.40;60.00
46562;DHT22;32289;42.688;23.330;2023-03-08T16:32:30;13.40;60.00
46562;DHT22;32289;42.688;23.330;2023-03-08T16:36:11;13.30;60.60
46562;DHT22;32289;42.688;23.330;2023-03-08T16:39:52;13.30;61.90
46562;DHT22;32289;42.688;23.330;2023-03-08T16:43:35;13.10;61.60
46562;DHT22;32289;42.688;23.330;2023-03-08T16:47:16;13.00;61.40
46562;DHT22;32289;42.688;23.330;2023-03-08T16:50:58;13.00;61.60
46562;DHT22;32289;42.688;23.330;2023-03-08T16:54:39;12.80;61.90
46562;DHT22;32289;42.688;23.330;2023-03-08T16:58:20;12.60;62.10
46562;DHT22;32289;42.688;23.330;2023-03-08T17:02:01;12.70;62.70
46562;DHT22;32289;42.688;23.330;2023-03-08T17:05:43;12.50;62.70
46562;DHT22;32289;42.688;23.330;2023-03-08T17:09:25;12.50;63.30
46562;DHT22;32289;42.688;23.330;2023-03-08T17:13:06;12.60;64.70
46562;DHT22;32289;42.688;23.330;2023-03-08T17:16:47;12.60;64.40
46562;DHT22;32289;42.688;23.330;2023-03-08T17:20:27;12.50;65.20
46562;DHT22;32289;42.688;23.330;2023-03-08T17:24:11;12.40;65.50
46562;DHT22;32289;42.688;23.330;2023-03-08T17:27:52;12.30;65.00
46562;DHT22;32289;42.688;23.330;2023-03-08T17:31:33;12.20;65.00
46562;DHT22;32289;42.688;23.330;2023-03-08T17:35:14;12.20;65.40
46562;DHT22;32289;42.688;23.330;2023-03-08T17:38:55;12.50;63.60
46562;DHT22;32289;42.688;23.330;2023-03-08T17:42:36;12.40;63.10
46562;DHT22;32289;42.688;23.330;2023-03-08T17:46:21;12.40;63.10
46562;DHT22;32289;42.688;23.330;2023-03-08T17:50:03;12.40;63.10
46562;DHT22;32289;42.688;23.330;2023-03-08T17:53:45;12.50;62.50
46562;DHT22;32289;42.688;23.330;2023-03-08T17:57:25;12.40;62.30
46562;DHT22;32289;42.688;23.330;2023-03-08T18:01:33;12.40;62.40
46562;DHT22;32289;42.688;23.330;2023-03-08T18:05:13;12.30;62.70
46562;DHT22;32289;42.688;23.330;2023-03-08T18:08:56;12.20;61.60
46562;DHT22;32289;42.688;23.330;2023-03-08T18:12:37;12.20;61.90
46562;DHT22;32289;42.688;23.330;2023-03-08T18:16:19;12.10;62.50
46562;DHT22;32289;42.688;23.330;2023-03-08T18:20:00;12.00;62.70
46562;DHT22;32289;42.688;23.330;2023-03-08T18:23:41;12.00;63.10
46562;DHT22;32289;42.688;23.330;2023-03-08T18:27:22;11.90;63.20
46562;DHT22;32289;42.688;23.330;2023-03-08T18:31:15;11.80;62.90
46562;DHT22;32289;42.688;23.330;2023-03-08T18:34:55;11.70;63.20
46562;DHT22;32289;42.688;23.330;2023-03-08T18:38:36;11.60;64.00
46562;DHT22;32289;42.688;23.330;2023-03-08T18:42:17;11.60;63.60
46562;DHT22;32289;42.688;23.330;2023-03-08T18:45:58;11.60;62.70
46562;DHT22;32289;42.688;23.330;2023-03-08T18:49:39;11.50;63.00
46562;DHT22;32289;42.688;23.330;2023-03-08T18:53:21;11.50;62.90
46562;DHT22;32289;42.688;23.330;2023-03-08T18:57:01;11.40;62.90
46562;DHT22;32289;42.688;23.330;2023-03-08T19:00:42;11.40;63.20
46562;DHT22;32289;42.688;23.330;2023-03-08T19:04:23;11.40;63.30
46562;DHT22;32289;42.688;23.330;2023-03-08T19:08:04;11.40;62.60
46562;DHT22;32289;42.688;23.330;2023-03-08T19:11:45;11.40;61.80
46562;DHT22;32289;42.688;23.330;2023-03-08T19:15:27;11.40;60.90
46562;DHT22;32289;42.688;23.330;2023-03-08T19:19:11;11.30;60.60
46562;DHT22;32289;42.688;23.330;2023-03-08T19:22:52;11.40;60.60
46562;DHT22;32289;42.688;23.330;2023-03-08T19:26:35;11.30;60.60
46562;DHT22;32289;42.688;23.330;2023-03-08T19:30:16;11.40;60.80
46562;DHT22;32289;42.688;23.330;2023-03-08T19:33:57;11.30;60.40
46562;DHT22;32289;42.688;23.330;2023-03-08T19:37:38;11.40;60.50
46562;DHT22;32289;42.688;23.330;2023-03-08T19:41:18;11.30;60.50
46562;DHT22;32289;42.688;23.330;2023-03-08T19:44:59;11.30;60.20
46562;DHT22;32289;42.688;23.330;2023-03-08T19:48:43;11.20;60.40
46562;DHT22;32289;42.688;23.330;2023-03-08T19:52:25;11.10;61.90
46562;DHT22;32289;42.688;23.330;2023-03-08T19:56:06;10.90;63.60
46562;DHT22;32289;42.688;23.330;2023-03-08T19:59:47;10.70;64.10
46562;DHT22;32289;42.688;23.330;2023-03-08T20:03:27;10.50;65.20
46562;DHT22;32289;42.688;23.330;2023-03-08T20:07:08;10.30;66.00
46562;DHT22;32289;42.688;23.330;2023-03-08T20:10:49;10.30;66.30
46562;DHT22;32289;42.688;23.330;2023-03-08T20:14:30;10.30;66.20
46562;DHT22;32289;42.688;23.330;2023-03-08T20:18:10;10.10;66.60
46562;DHT22;32289;42.688;23.330;2023-03-08T20:21:51;10.00;67.00
46562;DHT22;32289;42.688;23.330;2023-03-08T20:25:32;9.90;66.90
46562;DHT22;32289;42.688;23.330;2023-03-08T20:29:14;9.80;67.20
46562;DHT22;32289;42.688;23.330;2023-03-08T20:32:54;9.80;67.20
46562;DHT22;32289;42.688;23.330;2023-03-08T20:36:36;9.70;67.80
46562;DHT22;32289;42.688;23.330;2023-03-08T20:40:17;9.90;66.70
46562;DHT22;32289;42.688;23.330;2023-03-08T20:44:00;9.90;66.20
46562;DHT22;32289;42.688;23.330;2023-03-08T20:47:40;10.00;66.10
46562;DHT22;32289;42.688;23.330;2023-03-08T20:51:21;10.10;65.60
46562;DHT22;32289;42.688;23.330;2023-03-08T20:55:03;10.10;65.40
46562;DHT22;32289;42.688;23.330;2023-03-08T20:58:44;10.10;65.40
46562;DHT22;32289;42.688;23.330;2023-03-08T21:02:26;10.20;65.30
46562;DHT22;32289;42.688;23.330;2023-03-08T21:06:19;10.10;65.80
46562;DHT22;32289;42.688;23.330;2023-03-08T21:10:00;9.90;66.80
46562;DHT22;32289;42.688;23.330;2023-03-08T21:13:40;9.60;67.80
46562;DHT22;32289;42.688;23.330;2023-03-08T21:17:21;9.60;68.20
46562;DHT22;32289;42.688;23.330;2023-03-08T21:21:05;9.70;67.90
46562;DHT22;32289;42.688;23.330;2023-03-08T21:24:49;9.80;67.90
46562;DHT22;32289;42.688;23.330;2023-03-08T21:28:29;9.90;67.50
46562;DHT22;32289;42.688;23.330;2023-03-08T21:32:10;9.90;67.70
46562;DHT22;32289;42.688;23.330;2023-03-08T21:35:51;9.90;67.50
46562;DHT22;32289;42.688;23.330;2023-03-08T21:39:32;9.90;68.00
46562;DHT22;32289;42.688;23.330;2023-03-08T21:43:13;9.90;67.60
46562;DHT22;32289;42.688;23.330;2023-03-08T21:46:53;10.00;67.40
46562;DHT22;32289;42.688;23.330;2023-03-08T21:50:38;9.90;67.50
46562;DHT22;32289;42.688;23.330;2023-03-08T21:54:22;9.90;67.70
46562;DHT22;32289;42.688;23.330;2023-03-08T21:58:03;9.90;68.00
46562;DHT22;32289;42.688;23.330;2023-03-08T22:01:45;9.90;68.10
46562;DHT22;32289;42.688;23.330;2023-03-08T22:05:28;9.80;68.10
46562;DHT22;32289;42.688;23.330;2023-03-08T22:09:09;9.80;68.50
46562;DHT22;32289;42.688;23.330;2023-03-08T22:12:50;9.80;68.40
46562;DHT22;32289;42.688;23.330;2023-03-08T22:16:31;9.70;69.00
46562;DHT22;32289;42.688;23.330;2023-03-08T22:20:12;9.80;68.40
46562;DHT22;32289;42.688;23.330;2023-03-08T22:23:55;9.70;69.00
46562;DHT22;32289;42.688;23.330;2023-03-08T22:27:36;9.70;69.40
46562;DHT22;32289;42.688;23.330;2023-03-08T22:31:19;9.60;69.60
46562;DHT22;32289;42.688;23.330;2023-03-08T22:35:00;9.40;70.20
46562;DHT22;32289;42.688;23.330;2023-03-08T22:38:42;9.30;71.30
46562;DHT22;32289;42.688;23.330;2023-03-08T22:42:23;9.10;72.10
46562;DHT22;32289;42.688;23.330;2023-03-08T22:46:08;9.10;72.50
46562;DHT22;32289;42.688;23.330;2023-03-08T22:49:49;9.10;72.60
46562;DHT22;32289;42.688;23.330;2023-03-08T22:53:30;9.10;72.40
46562;DHT22;32289;42.688;23.330;2023-03-08T22:57:11;9.10;72.60
46562;DHT22;32289;42.688;23.330;2023-03-08T23:00:53;9.00;72.70
46562;DHT22;32289;42.688;23.330;2023-03-08T23:04:34;9.10;72.60
46562;DHT22;32289;42.688;23.330;2023-03-08T23:08:14;9.20;72.10
46562;DHT22;32289;42.688;23.330;2023-03-08T23:11:56;9.10;72.40
46562;DHT22;32289;42.688;23.330;2023-03-08T23:15:39;9.10;72.80
46562;DHT22;32289;42.688;23.330;2023-03-08T23:19:20;8.90;73.20
46562;DHT22;32289;42.688;23.330;2023-03-08T23:23:01;8.90;73.40
46562;DHT22;32289;42.688;23.330;2023-03-08T23:26:42;8.70;73.60
46562;DHT22;32289;42.688;23.330;2023-03-08T23:30:26;8.50;74.80
46562;DHT22;32289;42.688;23.330;2023-03-08T23:34:07;8.30;76.40
46562;DHT22;32289;42.688;23.330;2023-03-08T23:37:47;8.20;77.20
46562;DHT22;32289;42.688;23.330;2023-03-08T23:41:29;8.00;78.30
46562;DHT22;32289;42.688;23.330;2023-03-08T23:45:10;7.90;79.30
46562;DHT22;32289;42.688;23.330;2023-03-08T23:48:54;8.00;79.80
46562;DHT22;32289;42.688;23.330;2023-03-08T23:52:36;8.00;79.90
46562;DHT22;32289;42.688;23.330;2023-03-08T23:56:22;7.80;80.40
